Time;durP1;ratioP1;P1;durP2;ratioP2;P2;SDS_P1;SDS_P2;PMS_P1;PMS_P2;Temp;Humidity;BMP_temperature;BMP_pressure;BME280_temperature;BME280_humidity;BME280_pressure;Samples;Min_cycle;Max_cycle;Signal;HPM_P1;HPM_P2
2023/03/21 06:52:16;;;;;;;46.17;19.83;;;8.40;99.90;;;;;;4917702;29;20079;-90
2023/03/21 06:54:41;;;;;;;45.40;19.67;;;8.50;99.90;;;;;;4918116;29;20120;-88
2023/03/21 06:57:20;;;;;;;46.67;23.85;;;10.10;99.90;;;;;;4921531;29;20040;-89
2023/03/21 07:00:49;;;;;;;44.17;20.15;;;9.00;99.90;;;;;;4927816;29;20052;-90
2023/03/21 07:04:06;;;;;;;45.83;21.98;;;8.50;99.90;;;;;;4917604;29;20056;-90
2023/03/21 07:06:37;;;;;;;39.75;18.88;;;9.20;99.90;;;;;;4894046;29;20056;-92
2023/03/21 07:09:09;;;;;;;39.03;17.50;;;10.40;99.90;;;;;;4886325;29;20053;-89
2023/03/21 07:12:18;;;;;;;37.25;17.38;;;9.70;99.90;;;;;;4925052;29;20047;-90
2023/03/21 07:14:52;;;;;;;39.60;18.90;;;9.40;99.90;;;;;;4912030;29;20135;-88
2023/03/21 07:17:21;;;;;;;37.42;18.17;;;8.60;99.90;;;;;;4915459;29;20531;-87
2023/03/21 07:20:06;;;;;;;37.67;18.92;;;9.90;99.90;;;;;;4918309;29;20046;-88
2023/03/21 07:22:35;;;;;;;37.08;17.85;;;9.00;99.90;;;;;;4919290;29;20048;-88
2023/03/21 07:25:13;;;;;;;40.65;19.27;;;9.70;99.90;;;;;;4925435;29;20119;-88
2023/03/21 07:27:47;;;;;;;36.17;15.10;;;10.20;99.90;;;;;;4917352;29;20052;-88
2023/03/21 07:30:16;;;;;;;39.58;18.42;;;9.00;99.90;;;;;;4917003;29;20054;-87
2023/03/21 07:38:33;;;;;;;38.55;23.17;;;9.00;99.90;;;;;;4943436;23;20127;-89
2023/03/21 07:41:00;;;;;;;34.45;15.27;;;9.00;99.90;;;;;;5106492;23;20461;-87
2023/03/21 07:43:26;;;;;;;32.30;15.27;;;9.00;99.90;;;;;;4875503;23;20076;-89
2023/03/21 07:46:18;;;;;;;33.58;17.13;;;10.20;99.90;;;;;;4900224;29;20727;-89
2023/03/21 07:51:37;;;;;;;30.83;15.48;;;8.90;99.90;;;;;;4931067;23;20539;-89
2023/03/21 08:01:27;;;;;;;35.25;16.38;;;8.90;99.90;;;;;;4894328;29;20430;-89
2023/03/21 08:03:55;;;;;;;31.55;16.00;;;9.00;99.90;;;;;;4861198;29;20049;-90
2023/03/21 08:10:02;;;;;;;30.38;15.18;;;10.30;99.90;;;;;;4850290;29;20589;-95
2023/03/21 08:12:28;;;;;;;34.92;15.40;;;9.00;99.90;;;;;;4825070;29;20150;-87
2023/03/21 08:15:14;;;;;;;33.95;15.60;;;10.10;99.90;;;;;;4899162;23;20048;-88
2023/03/21 08:32:16;;;;;;;32.07;14.83;;;8.50;99.90;;;;;;4905700;23;20056;31
2023/03/21 08:35:11;;;;;;;32.80;15.63;;;10.00;99.90;;;;;;4862891;29;20069;-91
2023/03/21 08:37:46;;;;;;;30.33;16.07;;;9.20;99.90;;;;;;4861259;29;20049;-89
2023/03/21 08:40:30;;;;;;;34.57;16.33;;;9.20;99.90;;;;;;4865676;29;20060;-90
2023/03/21 08:43:17;;;;;;;35.35;16.67;;;9.00;99.90;;;;;;4868904;29;20105;-89
2023/03/21 08:45:53;;;;;;;31.45;14.77;;;9.50;99.90;;;;;;4869264;29;20450;-89
2023/03/21 08:48:41;;;;;;;28.57;15.20;;;9.30;99.90;;;;;;4858991;29;20393;-90
2023/03/21 08:53:38;;;;;;;30.20;15.20;;;9.30;99.90;;;;;;4957461;23;20015;-90
2023/03/21 08:56:05;;;;;;;31.27;15.43;;;9.70;99.90;;;;;;4886540;29;20056;-90
2023/03/21 08:58:38;;;;;;;32.40;15.85;;;9.30;99.90;;;;;;4963047;23;20107;-90
2023/03/21 09:05:44;;;;;;;33.38;16.30;;;9.40;99.90;;;;;;4860531;29;20305;-89
2023/03/21 09:08:13;;;;;;;31.90;16.00;;;9.30;99.90;;;;;;4877976;29;20052;-90
2023/03/21 09:10:39;;;;;;;30.13;14.90;;;10.70;99.90;;;;;;4897319;23;20052;-90
2023/03/21 09:16:00;;;;;;;37.43;16.40;;;10.30;99.90;;;;;;4897131;29;20082;-89
2023/03/21 09:18:43;;;;;;;31.17;15.48;;;11.00;99.90;;;;;;4881641;29;20378;-89
2023/03/21 09:21:43;;;;;;;30.83;15.93;;;10.50;99.90;;;;;;4890659;29;20064;-90
2023/03/21 09:24:27;;;;;;;31.45;16.02;;;10.00;99.90;;;;;;4880321;29;20051;-89
2023/03/21 09:27:09;;;;;;;32.95;15.27;;;11.00;99.90;;;;;;4898201;29;20084;-91
2023/03/21 09:29:56;;;;;;;28.25;14.40;;;10.10;99.90;;;;;;4897523;29;20071;-90
2023/03/21 09:32:31;;;;;;;30.67;15.38;;;9.50;99.90;;;;;;4897968;29;20049;-89
2023/03/21 09:34:59;;;;;;;33.22;15.10;;;10.80;99.90;;;;;;4880919;29;20041;-88
2023/03/21 09:37:58;;;;;;;34.70;15.65;;;9.40;99.90;;;;;;4878281;29;20052;-88
2023/03/21 09:44:43;;;;;;;33.80;15.05;;;9.70;99.90;;;;;;4881370;29;20048;-88
2023/03/21 09:47:33;;;;;;;26.90;14.25;;;9.70;99.90;;;;;;4880737;29;20139;-86
2023/03/21 09:50:18;;;;;;;32.42;14.90;;;9.60;99.90;;;;;;4886900;29;20775;-87
2023/03/21 09:56:20;;;;;;;30.20;14.70;;;9.90;99.90;;;;;;4907838;29;20076;-89
2023/03/21 09:59:31;;;;;;;27.50;14.23;;;10.90;99.90;;;;;;4888938;29;20052;-88
2023/03/21 10:08:51;;;;;;;29.05;14.63;;;9.80;99.90;;;;;;4900843;29;20100;-90
2023/03/21 10:12:07;;;;;;;32.55;15.02;;;9.90;99.90;;;;;;4864577;29;20095;-88
2023/03/21 10:14:47;;;;;;;30.73;14.93;;;9.60;99.90;;;;;;4934628;23;20049;-88
2023/03/21 10:17:39;;;;;;;24.38;14.52;;;9.90;99.90;;;;;;4900603;29;20060;-88
2023/03/21 10:21:15;;;;;;;27.42;14.95;;;9.80;99.90;;;;;;4928907;23;20531;-88
2023/03/21 10:24:32;;;;;;;29.90;15.75;;;9.90;99.90;;;;;;4865112;29;20120;-89
2023/03/21 10:27:23;;;;;;;29.63;15.88;;;9.40;99.90;;;;;;4880462;29;20513;-88
2023/03/21 10:29:59;;;;;;;29.23;16.23;;;9.90;99.90;;;;;;4875317;29;20049;-88
2023/03/21 10:32:28;;;;;;;27.70;14.82;;;9.90;99.90;;;;;;4870565;29;20505;-88
2023/03/21 10:35:25;;;;;;;28.83;15.35;;;10.30;99.90;;;;;;4849131;29;20037;-86
2023/03/21 10:38:14;;;;;;;29.08;15.57;;;9.60;99.90;;;;;;4864555;29;20103;-87
2023/03/21 10:40:40;;;;;;;24.63;14.63;;;9.80;99.90;;;;;;5042936;23;20075;-87
2023/03/21 10:43:26;;;;;;;29.30;15.65;;;9.90;99.90;;;;;;4901778;29;20138;-87
2023/03/21 10:46:04;;;;;;;;;;;11.20;99.90;;;;;;4905249;29;20461;-87
2023/03/21 10:48:44;;;;;;;27.30;15.70;;;10.00;99.90;;;;;;4912043;29;20438;-87
2023/03/21 10:53:59;;;;;;;31.67;15.80;;;10.00;99.90;;;;;;4978692;23;20912;-87
2023/03/21 10:56:43;;;;;;;32.15;15.98;;;11.40;99.90;;;;;;4900184;29;20105;-87
2023/03/21 10:59:21;;;;;;;28.08;15.57;;;11.50;99.90;;;;;;4899850;29;20052;-87
2023/03/21 11:01:55;;;;;;;34.95;18.48;;;10.00;99.90;;;;;;4893004;29;20489;-87
2023/03/21 11:04:42;;;;;;;;;;;10.10;99.90;;;;;;4935334;29;20052;-87
2023/03/21 11:08:00;;;;;;;34.38;19.75;;;10.10;99.90;;;;;;4928945;23;19962;-87
2023/03/21 11:10:51;;;;;;;37.15;19.00;;;9.80;99.90;;;;;;4903824;29;20055;-88
2023/03/21 11:14:13;;;;;;;30.42;16.25;;;10.00;99.90;;;;;;4829280;29;20058;-87
2023/03/21 11:17:10;;;;;;;;;;;;;;;;;;;;;
2023/03/21 11:23:12;;;;;;;23.65;13.52;;;10.00;99.90;;;;;;4919151;29;20043;-88
2023/03/21 11:33:35;;;;;;;20.60;10.93;;;10.20;99.90;;;;;;4998304;23;20112;-87
2023/03/21 11:36:37;;;;;;;20.85;11.65;;;10.30;99.90;;;;;;4954597;23;20068;-86
2023/03/21 11:39:39;;;;;;;21.70;10.68;;;10.30;99.90;;;;;;4900495;29;20044;-88
2023/03/21 11:42:27;;;;;;;19.73;10.57;;;10.50;99.90;;;;;;4907464;29;20401;-90
2023/03/21 11:45:16;;;;;;;20.20;10.93;;;10.50;99.90;;;;;;4915370;29;20047;-87
2023/03/21 11:47:42;;;;;;;19.17;10.75;;;10.70;99.90;;;;;;4906477;29;20044;-87
2023/03/21 11:50:33;;;;;;;20.48;10.13;;;10.80;99.90;;;;;;4896944;29;20254;-90
2023/03/21 11:53:17;;;;;;;19.85;10.02;;;11.00;99.90;;;;;;4900257;29;20088;-87
2023/03/21 11:56:07;;;;;;;22.40;11.63;;;11.10;99.90;;;;;;4880144;29;20049;-85
2023/03/21 11:58:40;;;;;;;22.23;10.82;;;11.10;99.90;;;;;;4888375;29;20231;-86
2023/03/21 12:01:26;;;;;;;18.67;9.15;;;11.20;99.90;;;;;;4899843;29;20049;-86
2023/03/21 12:07:47;;;;;;;19.33;9.25;;;10.50;99.90;;;;;;4891963;29;20048;-82
2023/03/21 12:10:41;;;;;;;17.15;8.95;;;11.80;99.90;;;;;;4906242;29;20088;-84
2023/03/21 12:13:20;;;;;;;16.58;8.50;;;11.20;99.90;;;;;;4904131;29;20083;-85
2023/03/21 12:20:04;;;;;;;19.38;8.35;;;11.00;99.90;;;;;;4885577;29;20057;-82
2023/03/21 12:23:23;;;;;;;19.23;8.48;;;11.20;99.90;;;;;;4896736;29;20048;-83
2023/03/21 12:26:31;;;;;;;16.80;8.45;;;11.10;99.90;;;;;;4846008;29;20221;-83
2023/03/21 12:31:50;;;;;;;17.05;8.25;;;11.40;99.90;;;;;;4901853;23;20048;-82
2023/03/21 12:34:49;;;;;;;14.73;7.93;;;11.40;99.90;;;;;;4887035;29;20073;-83
2023/03/21 12:37:57;;;;;;;15.57;8.60;;;11.50;99.90;;;;;;4888659;29;20508;-83
2023/03/21 12:41:19;;;;;;;18.23;8.25;;;11.50;99.90;;;;;;4916277;29;20040;-84
2023/03/21 12:44:10;;;;;;;15.63;8.15;;;11.60;99.90;;;;;;4896110;29;20051;-83
2023/03/21 12:50:21;;;;;;;17.63;8.15;;;11.50;99.90;;;;;;4831944;29;20052;-83
2023/03/21 12:53:42;;;;;;;13.75;7.80;;;11.60;99.90;;;;;;4845883;29;20049;-83
2023/03/21 12:56:33;;;;;;;15.90;8.35;;;11.60;99.90;;;;;;4849034;29;20077;-83
2023/03/21 12:59:19;;;;;;;16.55;8.02;;;12.60;99.90;;;;;;4848002;29;20049;-83
2023/03/21 13:01:47;;;;;;;14.60;7.40;;;11.50;99.90;;;;;;4887284;29;20112;-83
2023/03/21 13:04:55;;;;;;;15.63;8.15;;;11.50;99.90;;;;;;4888608;29;20132;-84
2023/03/21 13:07:23;;;;;;;14.98;7.55;;;11.40;99.90;;;;;;4890181;29;20562;-84
2023/03/21 13:09:50;;;;;;;14.43;7.32;;;11.40;99.90;;;;;;4990567;23;20052;-83
2023/03/21 13:12:33;;;;;;;16.63;7.72;;;12.30;99.90;;;;;;4925349;29;20151;-82
2023/03/21 13:15:49;;;;;;;16.35;7.63;;;11.10;99.90;;;;;;4912509;29;20048;-83
2023/03/21 13:18:54;;;;;;;14.68;7.72;;;10.90;99.90;;;;;;4904795;29;20056;-83
2023/03/21 13:21:54;;;;;;;14.98;7.75;;;11.10;99.90;;;;;;4914266;29;20056;-84
2023/03/21 13:24:46;;;;;;;17.05;8.55;;;11.20;99.90;;;;;;4915963;29;20055;-84
2023/03/21 13:27:38;;;;;;;15.57;8.07;;;11.90;99.90;;;;;;4914796;29;20060;-83
2023/03/21 13:30:31;;;;;;;17.80;8.40;;;12.10;99.90;;;;;;4914245;29;20543;-83
2023/03/21 13:33:03;;;;;;;16.63;8.85;;;10.80;99.90;;;;;;4921953;29;20048;-84
2023/03/21 13:36:05;;;;;;;19.63;8.98;;;11.50;99.90;;;;;;4920631;29;20052;-84
2023/03/21 13:39:20;;;;;;;14.60;8.43;;;11.80;99.90;;;;;;4919151;29;20051;-84
2023/03/21 13:42:02;;;;;;;15.98;8.48;;;11.50;99.90;;;;;;4918508;29;20083;-85
2023/03/21 13:44:55;;;;;;;17.65;8.60;;;12.90;99.90;;;;;;4917515;29;20040;-86
2023/03/21 13:47:34;;;;;;;14.82;7.63;;;11.30;99.90;;;;;;4916153;29;20131;-85
2023/03/21 13:53:42;;;;;;;;;;;;;;;;;;;;;
2023/03/21 14:01:07;;;;;;;17.05;8.25;;;11.90;99.90;;;;;;4909157;29;20052;-86
2023/03/21 14:04:26;;;;;;;18.33;8.85;;;12.10;99.90;;;;;;4907294;29;20059;-86
2023/03/21 14:14:30;;;;;;;14.57;7.28;;;12.00;99.90;;;;;;4819518;29;20210;-84
2023/03/21 14:35:20;;;;;;;15.88;7.80;;;12.60;99.90;;;;;;4776060;30;20097;-85
2023/03/21 14:45:36;;;;;;;16.38;7.18;;;11.90;99.90;;;;;;4757454;23;20055;-85
2023/03/21 15:05:28;;;;;;;13.48;7.30;;;12.40;99.90;;;;;;4849634;29;20105;-86
2023/03/21 15:36:20;;;;;;;15.98;8.80;;;13.10;99.90;;;;;;4893652;29;20056;-88
2023/03/21 16:34:03;;;;;;;16.05;8.38;;;12.30;99.90;;;;;;4838808;29;20054;-87
2023/03/21 16:36:53;;;;;;;17.55;10.10;;;12.20;99.90;;;;;;4869009;29;20022;-87
2023/03/21 16:39:52;;;;;;;16.75;7.60;;;12.50;99.90;;;;;;4864884;29;20061;-88
2023/03/21 16:43:32;;;;;;;13.85;7.30;;;12.20;99.90;;;;;;4869564;29;20097;-86
2023/03/21 16:48:33;;;;;;;14.73;7.45;;;12.30;99.90;;;;;;5185372;23;20064;-86
2023/03/21 16:56:01;;;;;;;14.65;7.90;;;11.70;99.90;;;;;;4887154;29;20116;-85
2023/03/21 16:58:28;;;;;;;16.50;8.15;;;11.60;99.90;;;;;;4888564;29;20056;-88
2023/03/21 17:01:15;;;;;;;18.85;9.93;;;13.10;99.90;;;;;;4887270;29;20040;-87
2023/03/21 17:03:40;;;;;;;15.73;7.68;;;13.40;99.90;;;;;;4886237;29;20059;-86
2023/03/21 17:06:23;;;;;;;23.52;11.95;;;12.20;99.90;;;;;;4885470;29;20033;-87
2023/03/21 17:08:50;;;;;;;16.90;9.60;;;12.80;99.90;;;;;;4914283;29;20056;-89
2023/03/21 17:11:24;;;;;;;24.30;14.98;;;13.50;99.90;;;;;;4892250;23;20081;-87
2023/03/21 17:29:56;;;;;;;;;;;;;;;;;;;;;
2023/03/21 17:54:03;;;;;;;20.33;11.80;;;10.80;99.90;;;;;;5324282;23;20079;-87
2023/03/21 17:57:42;;;;;;;18.52;11.75;;;10.80;99.90;;;;;;4879176;29;20123;-93
2023/03/21 18:00:41;;;;;;;20.45;12.02;;;10.70;99.90;;;;;;4863791;29;20079;-89
2023/03/21 18:03:22;;;;;;;18.17;12.35;;;12.10;99.90;;;;;;4863378;29;20061;-86
2023/03/21 18:06:22;;;;;;;22.20;13.25;;;12.10;99.90;;;;;;4883546;29;20135;-87
2023/03/21 18:09:45;;;;;;;18.83;11.60;;;10.70;99.90;;;;;;4886619;29;20184;-87
2023/03/21 18:12:23;;;;;;;21.20;12.43;;;10.10;99.90;;;;;;4809600;29;20138;-87
2023/03/21 18:14:54;;;;;;;25.87;16.83;;;12.00;99.90;;;;;;4791702;29;20082;-87
2023/03/21 18:17:30;;;;;;;20.90;12.43;;;10.90;99.90;;;;;;4805377;29;20051;-87
2023/03/21 18:20:04;;;;;;;61.22;40.60;;;10.80;99.90;;;;;;4805970;29;20096;-87
2023/03/21 18:22:49;;;;;;;;;;;10.50;99.90;;;;;;4850175;29;20540;-86
2023/03/21 18:25:23;;;;;;;18.00;11.23;;;10.80;99.90;;;;;;4914642;29;19923;-88
2023/03/21 18:28:04;;;;;;;20.25;12.45;;;12.20;99.90;;;;;;4911786;29;20059;-87
2023/03/21 18:30:30;;;;;;;19.80;12.40;;;10.80;99.90;;;;;;4892909;29;20386;-87
2023/03/21 18:33:04;;;;;;;18.23;11.60;;;12.20;99.90;;;;;;4899103;29;20091;-87
2023/03/21 18:36:23;;;;;;;19.50;12.88;;;11.60;99.90;;;;;;4898876;29;20056;-87
2023/03/21 18:39:03;;;;;;;20.17;13.07;;;10.80;99.90;;;;;;4898153;29;20048;-86
2023/03/21 18:42:20;;;;;;;20.75;11.98;;;11.30;99.90;;;;;;4899606;29;20056;-87
2023/03/21 18:45:21;;;;;;;20.60;12.73;;;10.70;99.90;;;;;;4844086;29;20141;-87
2023/03/21 18:48:01;;;;;;;19.83;12.35;;;10.70;99.90;;;;;;4865036;29;20064;-87
2023/03/21 18:50:41;;;;;;;19.98;12.52;;;12.10;99.90;;;;;;4899359;29;20048;-87
2023/03/21 18:53:32;;;;;;;22.63;13.38;;;11.70;99.90;;;;;;4897511;29;20053;-87
2023/03/21 18:56:00;;;;;;;19.95;12.77;;;10.60;99.90;;;;;;4897908;29;20244;-87
2023/03/21 18:58:28;;;;;;;21.48;13.52;;;10.60;99.90;;;;;;4898318;29;20048;-87
2023/03/21 19:04:01;;;;;;;24.13;13.05;;;10.00;99.90;;;;;;4862912;29;20457;-90
2023/03/21 19:06:26;;;;;;;19.05;12.20;;;11.70;99.90;;;;;;4897393;29;20481;-86
2023/03/21 19:09:14;;;;;;;18.45;11.55;;;11.60;99.90;;;;;;4899917;29;20048;-87
2023/03/21 19:11:43;;;;;;;19.55;11.65;;;10.50;99.90;;;;;;4897908;29;20556;-89
2023/03/21 19:14:21;;;;;;;17.80;12.18;;;10.00;99.90;;;;;;4897704;29;20155;-89
2023/03/21 19:20:45;;;;;;;18.95;12.50;;;9.70;99.90;;;;;;4915225;29;20057;-89
2023/03/21 19:23:20;;;;;;;18.83;11.85;;;10.30;99.90;;;;;;4917180;29;20048;-89
2023/03/21 19:26:23;;;;;;;18.65;11.88;;;11.00;99.90;;;;;;4922989;29;20090;-88
2023/03/21 19:29:00;;;;;;;19.35;13.05;;;10.20;99.90;;;;;;4917909;29;20048;-89
2023/03/21 19:31:28;;;;;;;48.42;36.38;;;10.80;99.90;;;;;;4916611;29;20072;-89
2023/03/21 19:34:20;;;;;;;22.00;15.05;;;10.30;99.90;;;;;;4916316;29;20122;-89
2023/03/21 19:37:01;;;;;;;21.73;13.40;;;10.80;99.90;;;;;;4915783;29;20135;-89
2023/03/21 19:39:27;;;;;;;19.80;11.82;;;11.30;99.90;;;;;;4917152;29;20051;-89
2023/03/21 19:42:22;;;;;;;20.70;13.15;;;10.40;99.90;;;;;;4970636;23;20033;-88
2023/03/21 19:45:23;;;;;;;19.80;12.27;;;10.50;99.90;;;;;;4903011;29;20089;-88
2023/03/21 19:47:48;;;;;;;20.52;13.07;;;9.90;99.90;;;;;;4898986;29;20063;-89
2023/03/21 19:50:32;;;;;;;23.40;13.18;;;10.40;99.90;;;;;;4896680;29;20044;-89
2023/03/21 19:53:45;;;;;;;18.90;13.50;;;10.50;99.90;;;;;;4907083;23;20115;-89
2023/03/21 19:56:20;;;;;;;24.38;14.30;;;10.50;99.90;;;;;;4916627;29;20530;-90
2023/03/21 20:02:28;;;;;;;21.90;15.13;;;9.90;99.90;;;;;;4940672;29;20067;-89
2023/03/21 20:05:03;;;;;;;21.02;13.57;;;11.70;99.90;;;;;;4926386;29;20044;-89
2023/03/21 20:07:31;;;;;;;22.65;14.10;;;11.80;99.90;;;;;;4923159;29;20048;-89
2023/03/21 20:10:26;;;;;;;22.77;14.70;;;10.40;99.90;;;;;;4918460;29;20071;-89
2023/03/21 20:16:20;;;;;;;21.65;13.85;;;10.30;99.90;;;;;;4922258;23;20060;-90
2023/03/21 20:18:53;;;;;;;24.13;15.10;;;10.10;99.90;;;;;;4900686;29;20456;-89
2023/03/21 20:21:22;;;;;;;21.48;14.13;;;11.50;99.90;;;;;;4900253;29;20059;-89
2023/03/21 20:27:00;;;;;;;24.00;14.80;;;10.20;99.90;;;;;;5117015;23;20048;-89
2023/03/21 20:29:25;;;;;;;22.00;14.10;;;10.30;99.90;;;;;;4874190;29;20067;-89
2023/03/21 20:32:00;;;;;;;22.25;14.57;;;11.50;99.90;;;;;;4898316;29;20131;-89
2023/03/21 20:34:27;;;;;;;23.30;14.57;;;11.50;99.90;;;;;;4881355;29;20048;-88
2023/03/21 20:37:20;;;;;;;20.52;13.88;;;10.50;99.90;;;;;;4881371;29;20041;-89
2023/03/21 20:39:47;;;;;;;21.48;13.13;;;9.90;99.90;;;;;;4899946;29;20048;-90
2023/03/21 20:42:21;;;;;;;24.15;13.52;;;10.40;99.90;;;;;;4881671;29;20053;-89
2023/03/21 20:45:21;;;;;;;22.00;14.43;;;11.20;99.90;;;;;;4896776;29;20438;-89
2023/03/21 20:47:59;;;;;;;22.63;13.80;;;9.80;99.90;;;;;;4881647;29;20607;-89
2023/03/21 20:50:26;;;;;;;21.83;14.90;;;11.60;99.90;;;;;;4886070;29;20048;-89
2023/03/21 21:02:26;;;;;;;19.35;11.88;;;9.90;99.90;;;;;;4050986;27;20049;-89
2023/03/21 21:05:20;;;;;;;17.95;11.07;;;11.20;99.90;;;;;;4896663;29;20092;-89
2023/03/21 21:11:52;;;;;;;17.98;10.13;;;9.90;99.90;;;;;;4912264;29;20052;-89
2023/03/21 21:30:24;;;;;;;18.23;10.37;;;8.90;99.90;;;;;;5041960;23;20408;-89
2023/03/21 21:37:25;;;;;;;18.58;10.50;;;9.10;99.90;;;;;;4851791;29;20058;-89
2023/03/21 21:40:22;;;;;;;18.77;10.82;;;9.40;99.90;;;;;;4861216;29;20057;-89
2023/03/21 21:43:57;;;;;;;18.45;10.60;;;9.60;99.90;;;;;;4857562;29;20102;-88
2023/03/21 21:57:36;;;;;;;18.13;10.45;;;9.50;99.90;;;;;;4871781;29;20051;-88
2023/03/21 22:00:29;;;;;;;22.02;11.38;;;9.60;99.90;;;;;;4875532;29;20060;-88
2023/03/21 22:03:35;;;;;;;19.60;11.35;;;9.40;99.90;;;;;;4810425;29;20054;-86
2023/03/21 22:09:23;;;;;;;18.92;10.43;;;9.00;99.90;;;;;;4940969;23;20053;-87
2023/03/21 22:11:58;;;;;;;19.98;11.40;;;8.60;99.90;;;;;;4875463;29;20052;-87
2023/03/21 22:14:30;;;;;;;17.77;11.00;;;9.40;99.90;;;;;;4892112;29;20061;-86
2023/03/21 22:22:58;;;;;;;18.08;10.25;;;9.30;99.90;;;;;;5092976;23;20498;-86
2023/03/21 22:25:24;;;;;;;20.02;10.65;;;8.80;99.90;;;;;;4890556;29;20095;-87
2023/03/21 22:31:17;;;;;;;17.75;10.40;;;9.00;99.90;;;;;;4923689;23;20086;-86
2023/03/21 22:33:54;;;;;;;18.63;10.70;;;8.90;99.90;;;;;;4898894;29;20063;-86
2023/03/21 22:36:36;;;;;;;19.25;10.40;;;8.90;99.90;;;;;;4895420;29;20048;-86
2023/03/21 22:39:06;;;;;;;17.35;10.60;;;10.30;99.90;;;;;;4994757;23;20063;-86
2023/03/21 22:41:50;;;;;;;17.40;10.57;;;9.70;99.90;;;;;;4875012;29;20053;-86
2023/03/21 22:44:33;;;;;;;17.67;10.40;;;8.80;99.90;;;;;;4868004;29;20152;-86
2023/03/21 22:47:23;;;;;;;20.90;11.82;;;9.80;99.90;;;;;;4871137;29;20507;-86
2023/03/21 22:49:58;;;;;;;20.08;11.48;;;8.80;99.90;;;;;;4877386;29;20123;-86
2023/03/21 22:52:30;;;;;;;20.85;12.48;;;10.30;99.90;;;;;;4874562;29;20040;-86
2023/03/21 22:58:05;;;;;;;;;;;9.00;99.90;;;;;;4867269;29;20060;-87
2023/03/21 23:00:46;;;;;;;25.67;13.82;;;9.10;99.90;;;;;;4876041;29;19908;-87
2023/03/21 23:03:21;;;;;;;23.30;13.38;;;10.30;99.90;;;;;;4893120;29;20085;-86
2023/03/21 23:05:47;;;;;;;24.42;14.00;;;10.50;99.90;;;;;;4878199;29;20039;-87
2023/03/21 23:08:22;;;;;;;20.55;12.77;;;9.50;99.90;;;;;;4865255;29;20541;-87
2023/03/21 23:11:08;;;;;;;21.38;12.38;;;9.00;99.90;;;;;;4877294;29;20501;-86
2023/03/21 23:13:55;;;;;;;21.23;12.50;;;9.10;99.90;;;;;;4880017;29;20375;-90
2023/03/21 23:16:21;;;;;;;25.92;15.85;;;9.10;99.90;;;;;;4880114;29;20064;-87
2023/03/21 23:18:48;;;;;;;19.70;12.38;;;9.70;99.90;;;;;;4880937;29;20044;-86
2023/03/21 23:21:15;;;;;;;19.88;11.48;;;10.10;99.90;;;;;;4877995;29;20044;-87
2023/03/21 23:24:01;;;;;;;22.02;12.50;;;9.20;99.90;;;;;;4878893;29;20045;-86
2023/03/21 23:26:30;;;;;;;20.20;11.85;;;10.50;99.90;;;;;;4880007;29;20057;-87
2023/03/21 23:29:13;;;;;;;19.88;12.63;;;9.30;99.90;;;;;;4879496;29;20120;-87
2023/03/21 23:31:39;;;;;;;19.55;11.93;;;9.50;99.90;;;;;;4878653;29;20135;-87
2023/03/21 23:34:08;;;;;;;19.88;11.90;;;9.20;99.90;;;;;;4877871;29;20139;-87
2023/03/21 23:36:36;;;;;;;22.20;12.68;;;10.30;99.90;;;;;;4878790;29;20513;-87
2023/03/21 23:39:05;;;;;;;20.90;12.43;;;8.60;99.90;;;;;;4878669;29;20486;-87
2023/03/21 23:42:14;;;;;;;20.48;12.63;;;10.40;99.90;;;;;;4879770;29;20049;-88
2023/03/21 23:44:40;;;;;;;20.98;11.80;;;9.90;99.90;;;;;;4878348;29;20484;-86
2023/03/21 23:47:09;;;;;;;21.35;12.85;;;10.70;99.90;;;;;;4877923;29;20161;-87
2023/03/21 23:49:43;;;;;;;19.50;11.32;;;10.80;99.90;;;;;;4878535;29;20041;-87
2023/03/21 23:52:09;;;;;;;20.00;11.48;;;10.90;99.90;;;;;;4878133;29;20505;-87
2023/03/21 23:54:45;;;;;;;19.30;11.10;;;9.60;99.90;;;;;;4880795;29;20124;-87
2023/03/21 23:57:31;;;;;;;19.90;11.27;;;10.60;99.90;;;;;;4883142;29;20060;-86
2023/03/21 23:59:58;;;;;;;20.30;10.40;;;11.00;99.90;;;;;;4880187;29;20073;-87
